TimeCDT,TemperatureF,Dew PointF,Humidity,Sea Level PressureIn,VisibilityMPH,Wind Direction,Wind SpeedMPH,Gust SpeedMPH,PrecipitationIn,Events,Conditions,WindDirDegrees,DateUTC
12:56 AM,46.0,44.1,93,30.05,5.0,Calm,Calm,-,N/A,,Clear,0,2012-11-02 05:56:00
1:56 AM,45.0,43.0,93,30.05,9.0,Calm,Calm,-,N/A,,Clear,0,2012-11-02 06:56:00
2:56 AM,45.0,42.1,90,30.04,6.0,Calm,Calm,-,N/A,,Clear,0,2012-11-02 07:56:00
3:56 AM,45.0,42.1,90,30.04,9.0,Calm,Calm,-,N/A,,Clear,0,2012-11-02 08:56:00
4:56 AM,51.1,45.0,80,30.04,8.0,WSW,5.8,-,N/A,,Clear,240,2012-11-02 09:56:00
5:56 AM,46.9,43.0,86,30.04,10.0,WSW,3.5,-,N/A,,Clear,250,2012-11-02 10:56:00
6:56 AM,46.0,42.1,86,30.05,9.0,Variable,3.5,-,N/A,,Partly Cloudy,0,2012-11-02 11:56:00
7:56 AM,50.0,45.0,83,30.06,8.0,West,4.6,-,N/A,,Partly Cloudy,260,2012-11-02 12:56:00
8:56 AM,59.0,53.1,81,30.07,10.0,West,5.8,-,N/A,,Scattered Clouds,260,2012-11-02 13:56:00
9:56 AM,66.0,57.0,73,30.07,10.0,West,6.9,-,N/A,,Scattered Clouds,260,2012-11-02 14:56:00
10:56 AM,72.0,57.0,59,30.07,10.0,WSW,5.8,-,N/A,,Scattered Clouds,240,2012-11-02 15:56:00
11:56 AM,77.0,59.0,54,30.06,10.0,Variable,5.8,-,N/A,,Scattered Clouds,0,2012-11-02 16:56:00
12:56 PM,81.0,57.0,44,30.03,10.0,WNW,9.2,-,N/A,,Clear,290,2012-11-02 17:56:00
1:56 PM,81.0,55.9,42,30.01,10.0,Variable,3.5,-,N/A,,Scattered Clouds,0,2012-11-02 18:56:00
2:56 PM,82.9,57.0,41,30.00,10.0,West,6.9,-,N/A,,Scattered Clouds,280,2012-11-02 19:56:00
3:56 PM,82.0,57.0,42,29.99,10.0,West,5.8,-,N/A,,Partly Cloudy,280,2012-11-02 20:56:00
4:56 PM,81.0,57.9,45,29.99,10.0,SW,3.5,-,N/A,,Partly Cloudy,230,2012-11-02 21:56:00
5:56 PM,75.9,60.1,58,30.01,10.0,Calm,Calm,-,N/A,,Clear,0,2012-11-02 22:56:00
6:56 PM,71.1,60.1,68,30.02,10.0,Calm,Calm,-,N/A,,Clear,0,2012-11-02 23:56:00
7:56 PM,64.9,59.0,81,30.04,8.0,Calm,Calm,-,N/A,,Clear,0,2012-11-03 00:56:00
8:56 PM,64.0,59.0,84,30.04,5.0,Calm,Calm,-,N/A,,Haze,0,2012-11-03 01:56:00
9:56 PM,63.0,59.0,87,30.05,4.0,Calm,Calm,-,N/A,,Clear,0,2012-11-03 02:56:00
10:56 PM,63.0,57.9,84,30.06,6.0,SW,3.5,-,N/A,,Haze,230,2012-11-03 03:56:00
11:56 PM,61.0,57.0,87,30.06,6.0,Calm,Calm,-,N/A,,Clear,0,2012-11-03 04:56:00